Time;durP1;ratioP1;P1;durP2;ratioP2;P2;SDS_P1;SDS_P2;PMS_P1;PMS_P2;Temp;Humidity;BMP_temperature;BMP_pressure;BME280_temperature;BME280_humidity;BME280_pressure;Samples;Min_cycle;Max_cycle;Signal;HPM_P1;HPM_P2
2022/11/27 00:02:20;;;;;;;30.45;20.65;;;;;;;;;;4994797;28;20468;-65
2022/11/27 00:04:47;;;;;;;36.65;20.60;;;;;;;;;;4994605;28;20077;-65
2022/11/27 00:07:13;;;;;;;39.47;18.92;;;;;;;;;;4994882;28;20564;-65
2022/11/27 00:09:40;;;;;;;32.25;18.35;;;;;;;;;;4994122;28;20046;-65
2022/11/27 00:12:07;;;;;;;27.98;20.08;;;;;;;;;;4994922;28;20053;-65
2022/11/27 00:14:34;;;;;;;28.70;18.10;;;;;;;;;;4994896;28;20100;-65
2022/11/27 00:17:00;;;;;;;19.70;16.38;;;;;;;;;;4994770;28;20054;-65
2022/11/27 00:19:28;;;;;;;21.80;17.02;;;;;;;;;;4994211;28;20123;-65
2022/11/27 00:21:54;;;;;;;21.55;16.05;;;;;;;;;;4994690;28;20058;-65
2022/11/27 00:24:22;;;;;;;21.98;15.73;;;;;;;;;;4994562;28;20085;-65
2022/11/27 00:26:48;;;;;;;21.13;16.15;;;;;;;;;;4994646;28;20086;-64
2022/11/27 00:29:15;;;;;;;20.05;15.90;;;;;;;;;;4993941;28;20056;-65
2022/11/27 00:31:41;;;;;;;27.30;17.70;;;;;;;;;;4994819;28;20089;-64
2022/11/27 00:34:09;;;;;;;20.30;16.08;;;;;;;;;;4994399;28;20104;-64
2022/11/27 00:36:36;;;;;;;21.25;15.50;;;;;;;;;;4977323;28;20054;-64
2022/11/27 00:39:03;;;;;;;21.80;15.30;;;;;;;;;;4993816;28;20046;-65
2022/11/27 00:41:30;;;;;;;17.42;14.93;;;;;;;;;;4994306;28;20081;-64
2022/11/27 00:43:56;;;;;;;19.02;15.30;;;;;;;;;;4994158;28;20100;-65
2022/11/27 00:46:26;;;;;;;17.85;14.38;;;;;;;;;;4992655;28;20050;-65
2022/11/27 00:48:58;;;;;;;21.45;15.65;;;;;;;;;;4993481;28;20089;-65
2022/11/27 00:51:25;;;;;;;21.13;15.30;;;;;;;;;;4994489;28;20453;-65
2022/11/27 00:53:52;;;;;;;17.23;14.70;;;;;;;;;;4994093;28;20051;-64
2022/11/27 00:56:26;;;;;;;24.17;15.40;;;;;;;;;;4993954;28;20050;-65
2022/11/27 00:58:53;;;;;;;18.40;14.15;;;;;;;;;;4993320;28;20497;-65
2022/11/27 01:01:22;;;;;;;19.08;15.07;;;;;;;;;;4993947;28;20497;-65
2022/11/27 01:03:49;;;;;;;18.65;14.63;;;;;;;;;;4993953;28;20096;-65
2022/11/27 01:06:17;;;;;;;18.55;14.25;;;;;;;;;;4994015;28;20054;-65
2022/11/27 01:08:43;;;;;;;20.02;15.15;;;;;;;;;;4993023;28;20471;-64
2022/11/27 01:11:15;;;;;;;18.98;14.30;;;;;;;;;;4993759;28;20054;-63
2022/11/27 01:13:42;;;;;;;16.97;14.87;;;;;;;;;;4993867;28;20057;-63
2022/11/27 01:16:11;;;;;;;19.65;15.85;;;;;;;;;;4993390;28;20141;-64
2022/11/27 01:18:39;;;;;;;20.38;15.32;;;;;;;;;;4993111;28;20133;-64
2022/11/27 01:21:06;;;;;;;20.08;14.98;;;;;;;;;;4993573;28;20085;-64
2022/11/27 01:23:33;;;;;;;18.63;14.82;;;;;;;;;;4993765;28;20054;-64
2022/11/27 01:26:04;;;;;;;20.70;15.18;;;;;;;;;;4993864;28;20054;-65
2022/11/27 01:28:32;;;;;;;22.33;16.30;;;;;;;;;;4992644;28;20081;-65
2022/11/27 01:31:03;;;;;;;20.40;15.35;;;;;;;;;;4993496;28;20054;-65
2022/11/27 01:33:30;;;;;;;22.77;15.85;;;;;;;;;;4993258;28;20501;-65
2022/11/27 01:36:02;;;;;;;22.75;16.70;;;;;;;;;;4993247;28;20050;-64
2022/11/27 01:38:29;;;;;;;24.60;15.80;;;;;;;;;;4992613;28;20050;-64
2022/11/27 01:41:09;;;;;;;21.38;16.17;;;;;;;;;;4993466;28;20484;-65
2022/11/27 01:43:43;;;;;;;21.90;16.35;;;;;;;;;;4975871;28;20508;-65
2022/11/27 01:46:24;;;;;;;21.52;15.10;;;;;;;;;;4991486;28;20100;-64
2022/11/27 01:48:53;;;;;;;21.52;15.63;;;;;;;;;;4975116;28;20490;-65
2022/11/27 01:51:19;;;;;;;22.65;16.38;;;;;;;;;;4991906;28;20050;-64
2022/11/27 01:53:46;;;;;;;25.48;16.85;;;;;;;;;;4991848;28;20062;-64
2022/11/27 01:56:13;;;;;;;25.25;17.13;;;;;;;;;;4975890;28;20424;-64
2022/11/27 01:58:39;;;;;;;27.48;17.75;;;;;;;;;;4992212;28;20086;-63
2022/11/27 02:01:06;;;;;;;27.20;16.98;;;;;;;;;;4992744;28;20054;-64
2022/11/27 02:03:33;;;;;;;26.88;16.55;;;;;;;;;;4992687;28;20046;-65
2022/11/27 02:05:59;;;;;;;27.50;17.20;;;;;;;;;;4992811;28;20077;-65
2022/11/27 02:08:26;;;;;;;21.90;16.45;;;;;;;;;;4992117;28;20057;-65
2022/11/27 02:10:55;;;;;;;26.00;16.77;;;;;;;;;;4992542;28;20157;-64
2022/11/27 02:13:47;;;;;;;24.45;16.48;;;;;;;;;;4992726;28;20100;-64
2022/11/27 02:16:19;;;;;;;24.53;17.07;;;;;;;;;;4991701;28;20425;-64
2022/11/27 02:19:12;;;;;;;25.15;16.17;;;;;;;;;;4992066;28;20165;-64
2022/11/27 02:21:55;;;;;;;25.20;17.23;;;;;;;;;;4975390;28;20137;-64
2022/11/27 02:24:55;;;;;;;20.65;15.32;;;;;;;;;;4991387;28;20046;-64
2022/11/27 02:27:52;;;;;;;20.08;15.40;;;;;;;;;;4975385;28;20457;-64
2022/11/27 02:30:19;;;;;;;23.08;17.08;;;;;;;;;;4974211;28;20073;-64
2022/11/27 02:32:57;;;;;;;23.63;17.05;;;;;;;;;;4991369;28;20182;-64
2022/11/27 02:35:47;;;;;;;24.50;17.30;;;;;;;;;;4992498;28;20161;-63
2022/11/27 02:38:14;;;;;;;27.60;18.75;;;;;;;;;;4990733;28;20054;-64
2022/11/27 02:40:47;;;;;;;26.23;19.10;;;;;;;;;;4990866;28;20556;-64
2022/11/27 02:43:16;;;;;;;26.90;19.55;;;;;;;;;;4992512;28;20054;-64
2022/11/27 02:45:47;;;;;;;24.40;19.35;;;;;;;;;;4974871;28;20050;-63
2022/11/27 02:48:15;;;;;;;31.10;20.02;;;;;;;;;;4991448;28;20571;-64
2022/11/27 02:50:43;;;;;;;28.67;20.42;;;;;;;;;;4974839;28;20093;-64
2022/11/27 02:53:16;;;;;;;26.13;18.08;;;;;;;;;;4974816;28;20054;-64
2022/11/27 02:55:43;;;;;;;28.35;20.20;;;;;;;;;;4975069;28;20095;-63
2022/11/27 02:58:15;;;;;;;26.00;18.40;;;;;;;;;;4991872;28;20050;-64
2022/11/27 03:00:41;;;;;;;26.80;19.10;;;;;;;;;;4992096;28;20046;-64
2022/11/27 03:03:09;;;;;;;25.40;18.92;;;;;;;;;;4975506;28;20108;-64
2022/11/27 03:05:38;;;;;;;26.63;19.58;;;;;;;;;;4975056;28;20050;-64
2022/11/27 03:08:07;;;;;;;27.95;18.65;;;;;;;;;;4991955;28;20050;-64
2022/11/27 03:10:53;;;;;;;30.25;20.17;;;;;;;;;;4974737;28;20490;-64
2022/11/27 03:13:20;;;;;;;27.17;19.02;;;;;;;;;;4991110;28;20105;-63
2022/11/27 03:16:00;;;;;;;23.80;19.05;;;;;;;;;;4992120;28;20058;-64
2022/11/27 03:18:34;;;;;;;27.67;18.25;;;;;;;;;;4990444;28;20054;-64
2022/11/27 03:21:43;;;;;;;28.80;19.05;;;;;;;;;;4975008;28;20109;-64
2022/11/27 03:24:09;;;;;;;29.20;18.80;;;;;;;;;;4905085;29;20105;-65
2022/11/27 03:26:37;;;;;;;25.15;18.38;;;;;;;;;;4971369;28;20068;-64
2022/11/27 03:29:05;;;;;;;26.23;17.90;;;;;;;;;;4990351;28;20050;-64
2022/11/27 03:31:35;;;;;;;29.38;17.88;;;;;;;;;;4974678;28;20080;-66
2022/11/27 03:34:08;;;;;;;24.38;17.38;;;;;;;;;;4990981;28;20078;-64
2022/11/27 03:36:35;;;;;;;25.30;17.67;;;;;;;;;;4991864;28;20104;-64
2022/11/27 03:39:02;;;;;;;27.73;18.10;;;;;;;;;;4992306;28;20117;-64
2022/11/27 03:41:45;;;;;;;26.10;17.60;;;;;;;;;;4994638;28;20560;-66
2022/11/27 03:45:28;;;;;;;26.10;17.95;;;;;;;;;;4994115;28;20057;-64
2022/11/27 03:48:04;;;;;;;28.33;18.13;;;;;;;;;;4858338;29;20140;-63
2022/11/27 03:50:49;;;;;;;27.95;18.13;;;;;;;;;;4907847;29;20104;-64
2022/11/27 03:53:37;;;;;;;25.63;18.23;;;;;;;;;;4987954;28;20097;-64
2022/11/27 03:56:49;;;;;;;24.23;17.50;;;;;;;;;;4995262;28;20489;-64
2022/11/27 03:59:19;;;;;;;24.70;17.58;;;;;;;;;;4991138;28;20485;-64
2022/11/27 04:01:46;;;;;;;22.85;16.10;;;;;;;;;;4977691;28;20101;-64
2022/11/27 04:04:14;;;;;;;20.95;16.17;;;;;;;;;;4993952;28;20508;-64
2022/11/27 04:06:41;;;;;;;18.15;14.52;;;;;;;;;;4995359;28;20054;-65
2022/11/27 04:09:07;;;;;;;17.90;13.32;;;;;;;;;;4993322;28;20054;-64
2022/11/27 04:11:34;;;;;;;14.13;12.35;;;;;;;;;;4995389;28;20468;-64
2022/11/27 04:14:00;;;;;;;13.38;11.52;;;;;;;;;;4995007;28;20050;-65
2022/11/27 04:16:27;;;;;;;13.65;11.45;;;;;;;;;;4994800;28;20594;-65
2022/11/27 04:18:56;;;;;;;12.65;11.15;;;;;;;;;;4994439;28;20050;-64
2022/11/27 04:21:24;;;;;;;14.43;11.05;;;;;;;;;;4961547;28;20129;-65
2022/11/27 04:23:51;;;;;;;13.88;11.98;;;;;;;;;;5058881;22;20068;-65
2022/11/27 04:26:17;;;;;;;16.65;12.73;;;;;;;;;;5034261;28;20049;-66
2022/11/27 04:28:44;;;;;;;15.55;12.10;;;;;;;;;;5033420;28;20107;-64
2022/11/27 04:31:10;;;;;;;16.33;13.10;;;;;;;;;;5033770;28;20049;-65
2022/11/27 04:33:37;;;;;;;14.48;12.13;;;;;;;;;;5019181;28;20496;-65
2022/11/27 04:36:04;;;;;;;16.35;13.50;;;;;;;;;;5014321;28;20096;-65
2022/11/27 04:38:31;;;;;;;13.20;11.55;;;;;;;;;;4996099;28;20076;-62
2022/11/27 04:40:57;;;;;;;15.05;12.05;;;;;;;;;;5014042;28;20097;-65
2022/11/27 04:43:24;;;;;;;13.73;11.63;;;;;;;;;;5014415;28;20112;-64
2022/11/27 04:45:51;;;;;;;13.88;12.27;;;;;;;;;;5013072;28;20050;-66
2022/11/27 04:48:17;;;;;;;15.68;12.68;;;;;;;;;;5013367;28;20046;-64
2022/11/27 04:50:44;;;;;;;18.42;13.10;;;;;;;;;;5012587;28;20045;-64
2022/11/27 04:53:11;;;;;;;16.17;12.48;;;;;;;;;;5013698;28;20053;-65
2022/11/27 04:55:37;;;;;;;14.95;12.57;;;;;;;;;;5013845;28;20467;-65
2022/11/27 04:58:04;;;;;;;16.95;13.57;;;;;;;;;;5013411;28;20050;-65
2022/11/27 05:00:30;;;;;;;16.60;12.90;;;;;;;;;;5013729;28;20046;-65
2022/11/27 05:02:57;;;;;;;16.85;13.45;;;;;;;;;;5013568;28;20077;-66
2022/11/27 05:05:24;;;;;;;15.35;12.35;;;;;;;;;;5013726;28;20483;-64
2022/11/27 05:07:50;;;;;;;13.38;11.40;;;;;;;;;;5012876;28;20566;-66
2022/11/27 05:10:17;;;;;;;12.25;10.68;;;;;;;;;;5013255;28;20045;-66
2022/11/27 05:12:44;;;;;;;10.77;9.68;;;;;;;;;;5013246;28;20563;-67
2022/11/27 05:15:10;;;;;;;11.57;10.25;;;;;;;;;;5013309;28;20080;-66
2022/11/27 05:17:37;;;;;;;11.27;10.18;;;;;;;;;;4996080;28;20054;-66
2022/11/27 05:20:05;;;;;;;11.13;10.02;;;;;;;;;;5013092;28;20551;-66
2022/11/27 05:22:32;;;;;;;12.50;10.65;;;;;;;;;;5013115;28;20058;-66
2022/11/27 05:24:58;;;;;;;11.40;10.20;;;;;;;;;;5013258;28;20397;-66
2022/11/27 05:27:25;;;;;;;13.60;10.77;;;;;;;;;;5013155;28;20050;-66
2022/11/27 05:29:51;;;;;;;13.15;9.57;;;;;;;;;;5012654;28;20528;-67
2022/11/27 05:32:18;;;;;;;17.55;9.52;;;;;;;;;;5012989;28;20053;-67
2022/11/27 05:34:45;;;;;;;13.38;9.75;;;;;;;;;;5013098;28;20103;-66
2022/11/27 05:37:12;;;;;;;12.80;9.63;;;;;;;;;;5012963;28;20096;-66
2022/11/27 05:39:44;;;;;;;12.63;9.02;;;;;;;;;;5012184;28;20046;-65
2022/11/27 05:42:11;;;;;;;10.23;9.02;;;;;;;;;;5013032;28;20104;-66
2022/11/27 05:44:38;;;;;;;13.63;10.70;;;;;;;;;;5012854;28;20050;-66
2022/11/27 05:47:05;;;;;;;11.60;10.40;;;;;;;;;;5011777;28;20393;-66
2022/11/27 05:49:32;;;;;;;14.20;10.60;;;;;;;;;;4994655;28;20053;-66
2022/11/27 05:51:58;;;;;;;14.10;9.85;;;;;;;;;;5012646;28;20163;-67
2022/11/27 05:54:25;;;;;;;13.35;10.45;;;;;;;;;;5012541;28;20049;-64
2022/11/27 05:56:51;;;;;;;13.75;11.13;;;;;;;;;;5012541;28;20072;-66
2022/11/27 05:59:18;;;;;;;13.93;11.48;;;;;;;;;;5012128;28;20112;-67
2022/11/27 06:01:45;;;;;;;13.68;11.45;;;;;;;;;;5012279;28;20042;-66
2022/11/27 06:04:11;;;;;;;13.38;11.73;;;;;;;;;;5012504;28;20132;-66
2022/11/27 06:06:38;;;;;;;13.23;10.95;;;;;;;;;;5012537;28;20046;-66
2022/11/27 06:09:05;;;;;;;10.75;9.32;;;;;;;;;;5011697;28;20108;-67
2022/11/27 06:11:38;;;;;;;13.45;10.70;;;;;;;;;;4996290;28;20485;-65
2022/11/27 06:14:07;;;;;;;15.35;11.95;;;;;;;;;;5012207;28;20054;-67
2022/11/27 06:16:34;;;;;;;13.82;11.20;;;;;;;;;;5012373;28;20137;-66
2022/11/27 06:19:00;;;;;;;13.88;11.23;;;;;;;;;;5011674;28;20508;-67
2022/11/27 06:21:27;;;;;;;16.85;12.27;;;;;;;;;;5012166;28;20046;-66
2022/11/27 06:23:54;;;;;;;12.48;10.52;;;;;;;;;;5012088;28;20104;-65
2022/11/27 06:26:25;;;;;;;15.55;11.77;;;;;;;;;;5012401;28;20131;-65
2022/11/27 06:28:52;;;;;;;16.05;11.75;;;;;;;;;;5011804;28;20470;-65
2022/11/27 06:31:21;;;;;;;13.85;12.10;;;;;;;;;;5012130;28;20096;-66
2022/11/27 06:33:49;;;;;;;14.90;12.82;;;;;;;;;;5012006;28;20133;-65
2022/11/27 06:36:17;;;;;;;16.73;12.73;;;;;;;;;;5012313;28;20076;-66
2022/11/27 06:38:44;;;;;;;14.23;12.05;;;;;;;;;;5011468;28;20489;-66
2022/11/27 06:41:16;;;;;;;15.23;11.63;;;;;;;;;;5011986;28;20563;-66
2022/11/27 06:43:42;;;;;;;17.77;12.18;;;;;;;;;;5012202;28;20050;-66
2022/11/27 06:46:14;;;;;;;14.63;11.88;;;;;;;;;;5010793;28;20503;-66
2022/11/27 06:48:42;;;;;;;17.20;12.13;;;;;;;;;;5011348;28;20054;-66
2022/11/27 06:51:11;;;;;;;17.42;13.10;;;;;;;;;;5011845;28;20555;-66
2022/11/27 06:53:38;;;;;;;16.40;13.18;;;;;;;;;;5012007;28;20456;-65
2022/11/27 06:56:07;;;;;;;17.85;13.50;;;;;;;;;;5012100;28;20046;-66
2022/11/27 06:58:35;;;;;;;17.23;14.15;;;;;;;;;;5011350;28;20505;-66
2022/11/27 07:01:04;;;;;;;18.98;14.48;;;;;;;;;;5011719;28;20057;-66
2022/11/27 07:03:31;;;;;;;19.90;14.43;;;;;;;;;;5011888;28;20081;-65
2022/11/27 07:06:02;;;;;;;19.50;13.35;;;;;;;;;;5012122;28;20046;-65
2022/11/27 07:08:29;;;;;;;20.67;14.73;;;;;;;;;;5011644;28;20050;-65
2022/11/27 07:11:02;;;;;;;18.02;13.68;;;;;;;;;;5012176;28;20050;-64
2022/11/27 07:13:29;;;;;;;18.45;14.77;;;;;;;;;;5012348;28;20050;-64
2022/11/27 07:16:00;;;;;;;19.20;15.13;;;;;;;;;;5016046;28;20123;-65
2022/11/27 07:18:28;;;;;;;18.58;13.77;;;;;;;;;;5014826;28;20053;-65
2022/11/27 07:20:55;;;;;;;16.15;12.73;;;;;;;;;;5015632;28;20049;-64
2022/11/27 07:23:22;;;;;;;14.93;11.23;;;;;;;;;;5015263;28;20505;-66
2022/11/27 07:25:48;;;;;;;15.90;11.38;;;;;;;;;;5015339;28;20045;-66
2022/11/27 07:28:15;;;;;;;15.57;10.68;;;;;;;;;;5014766;28;20108;-66
2022/11/27 07:30:44;;;;;;;16.88;10.90;;;;;;;;;;5015292;28;20050;-66
2022/11/27 07:33:11;;;;;;;13.98;11.65;;;;;;;;;;5015319;28;20108;-65
2022/11/27 07:35:37;;;;;;;15.13;11.27;;;;;;;;;;5015359;28;20049;-65
2022/11/27 07:38:04;;;;;;;15.57;12.75;;;;;;;;;;5014740;28;20049;-66
2022/11/27 07:40:31;;;;;;;16.35;12.00;;;;;;;;;;5015034;28;20112;-66
2022/11/27 07:42:57;;;;;;;17.63;12.55;;;;;;;;;;5015170;28;20049;-64
2022/11/27 07:45:24;;;;;;;14.23;11.23;;;;;;;;;;5015272;28;20046;-66
2022/11/27 07:47:50;;;;;;;14.85;11.90;;;;;;;;;;5012672;28;20049;-66
2022/11/27 07:50:17;;;;;;;15.90;11.50;;;;;;;;;;5014905;28;20297;-65
2022/11/27 07:52:44;;;;;;;13.18;10.60;;;;;;;;;;5014841;28;20054;-66
2022/11/27 07:55:10;;;;;;;14.40;11.15;;;;;;;;;;5014777;28;20054;-65
2022/11/27 07:57:37;;;;;;;13.73;10.65;;;;;;;;;;5015036;28;20096;-66
2022/11/27 08:00:05;;;;;;;12.50;10.07;;;;;;;;;;5014055;28;20555;-65
2022/11/27 08:02:31;;;;;;;12.82;9.55;;;;;;;;;;5014616;28;20551;-67
2022/11/27 08:04:58;;;;;;;11.85;9.93;;;;;;;;;;5014747;28;20104;-64
2022/11/27 08:07:28;;;;;;;14.43;10.52;;;;;;;;;;5015187;28;20056;-65
2022/11/27 08:09:58;;;;;;;13.32;10.40;;;;;;;;;;5013911;28;20479;-65
2022/11/27 08:12:25;;;;;;;11.43;10.05;;;;;;;;;;5014897;28;20046;-65
2022/11/27 08:14:51;;;;;;;16.30;9.73;;;;;;;;;;5014684;28;20049;-66
2022/11/27 08:17:18;;;;;;;14.60;10.52;;;;;;;;;;5013269;28;20069;-65
2022/11/27 08:19:45;;;;;;;19.05;13.63;;;;;;;;;;5013885;28;20100;-65
2022/11/27 08:22:12;;;;;;;24.77;16.20;;;;;;;;;;5014045;28;20103;-66
2022/11/27 08:24:41;;;;;;;23.63;15.35;;;;;;;;;;5014298;28;20112;-67
2022/11/27 08:27:08;;;;;;;14.65;10.63;;;;;;;;;;4981470;28;20052;-67
2022/11/27 08:29:36;;;;;;;15.73;11.40;;;;;;;;;;5013656;28;20045;-66
2022/11/27 08:32:03;;;;;;;12.90;10.15;;;;;;;;;;5014038;28;20500;-65
2022/11/27 08:34:30;;;;;;;12.98;11.02;;;;;;;;;;5014259;28;20049;-66
2022/11/27 08:36:57;;;;;;;15.20;11.13;;;;;;;;;;5014040;28;20119;-67
2022/11/27 08:39:25;;;;;;;13.23;11.50;;;;;;;;;;5013415;28;20049;-67
2022/11/27 08:41:52;;;;;;;14.52;11.90;;;;;;;;;;5014104;28;20050;-66
2022/11/27 08:44:19;;;;;;;14.20;11.60;;;;;;;;;;5014179;28;20493;-66
2022/11/27 08:46:46;;;;;;;15.57;12.15;;;;;;;;;;5012122;28;20092;-66
2022/11/27 08:49:12;;;;;;;18.08;12.75;;;;;;;;;;5013275;28;20057;-66
2022/11/27 08:51:39;;;;;;;14.52;12.55;;;;;;;;;;5013955;28;20497;-65
2022/11/27 08:54:06;;;;;;;15.88;13.38;;;;;;;;;;4996586;28;20092;-66
2022/11/27 08:56:32;;;;;;;19.05;13.05;;;;;;;;;;5013774;28;20057;-67
2022/11/27 08:58:59;;;;;;;18.65;14.35;;;;;;;;;;4995796;28;20104;-65
2022/11/27 09:01:28;;;;;;;18.48;13.75;;;;;;;;;;5013657;28;20389;-67
2022/11/27 09:03:55;;;;;;;18.02;12.82;;;;;;;;;;4996238;28;20484;-66
2022/11/27 09:06:26;;;;;;;18.23;12.63;;;;;;;;;;4996374;28;20050;-66
2022/11/27 09:08:59;;;;;;;17.63;13.18;;;;;;;;;;5013122;28;20072;-65
2022/11/27 09:11:27;;;;;;;13.85;11.75;;;;;;;;;;5013507;28;20092;-66
2022/11/27 09:13:54;;;;;;;14.20;11.32;;;;;;;;;;5013296;28;20559;-65
2022/11/27 09:16:21;;;;;;;17.83;11.80;;;;;;;;;;5013337;28;20099;-67
2022/11/27 09:18:49;;;;;;;15.00;11.55;;;;;;;;;;5012669;28;20057;-66
2022/11/27 09:21:17;;;;;;;13.30;11.50;;;;;;;;;;5012905;28;20464;-66
2022/11/27 09:23:44;;;;;;;14.32;10.63;;;;;;;;;;5013306;28;20050;-65
2022/11/27 09:26:14;;;;;;;25.45;15.73;;;;;;;;;;5013333;28;20389;-66
2022/11/27 09:28:41;;;;;;;22.83;15.68;;;;;;;;;;5012827;28;20050;-66
2022/11/27 09:31:10;;;;;;;14.43;10.77;;;;;;;;;;5012912;28;20099;-67
2022/11/27 09:33:38;;;;;;;15.68;11.07;;;;;;;;;;4995647;28;20413;-67
2022/11/27 09:36:06;;;;;;;14.45;10.60;;;;;;;;;;5013001;28;20467;-66
2022/11/27 09:38:33;;;;;;;13.10;10.27;;;;;;;;;;5012322;28;20046;-67
2022/11/27 09:41:22;;;;;;;12.55;10.38;;;;;;;;;;5013027;28;20080;-67
2022/11/27 09:43:58;;;;;;;12.25;10.02;;;;;;;;;;4972949;28;20507;-67
2022/11/27 09:46:36;;;;;;;11.10;8.40;;;;;;;;;;4993743;28;20421;-66
2022/11/27 09:49:06;;;;;;;10.80;8.05;;;;;;;;;;5011319;28;20092;-66
2022/11/27 09:51:36;;;;;;;8.38;6.65;;;;;;;;;;4995210;28;20504;-66
2022/11/27 09:54:07;;;;;;;8.57;6.50;;;;;;;;;;4995151;28;20058;-66
2022/11/27 09:56:34;;;;;;;10.07;7.18;;;;;;;;;;5011694;28;20054;-66
2022/11/27 09:59:01;;;;;;;11.63;7.65;;;;;;;;;;4994608;28;20493;-66
2022/11/27 10:01:29;;;;;;;9.60;7.50;;;;;;;;;;4995176;28;20485;-66
2022/11/27 10:04:10;;;;;;;11.38;7.80;;;;;;;;;;5011524;28;20057;-67
2022/11/27 10:06:51;;;;;;;11.02;7.25;;;;;;;;;;4995090;28;20050;-65
2022/11/27 10:10:06;;;;;;;9.70;7.35;;;;;;;;;;5011110;28;20054;-66
2022/11/27 10:12:48;;;;;;;9.85;7.03;;;;;;;;;;4916726;29;20047;-66
2022/11/27 10:15:16;;;;;;;7.78;6.55;;;;;;;;;;4917103;29;20051;-64
2022/11/27 10:17:45;;;;;;;8.80;6.15;;;;;;;;;;4985327;28;20095;-66
2022/11/27 10:20:33;;;;;;;10.20;7.13;;;;;;;;;;4994716;28;20054;-66
2022/11/27 10:23:33;;;;;;;10.57;7.43;;;;;;;;;;5040258;23;20084;-65
2022/11/27 10:26:22;;;;;;;10.55;7.88;;;;;;;;;;5032469;28;20045;-63
2022/11/27 10:29:20;;;;;;;8.57;6.95;;;;;;;;;;5016076;28;20045;-63
2022/11/27 10:31:49;;;;;;;9.23;6.97;;;;;;;;;;4998329;28;20107;-64
2022/11/27 10:34:35;;;;;;;10.25;7.85;;;;;;;;;;5015559;28;20053;-65
2022/11/27 10:37:07;;;;;;;11.63;8.13;;;;;;;;;;5012789;28;20053;-65
2022/11/27 10:39:40;;;;;;;8.68;7.03;;;;;;;;;;4994522;28;20163;-65
2022/11/27 10:42:16;;;;;;;9.77;7.38;;;;;;;;;;4994971;28;20137;-65
2022/11/27 10:44:51;;;;;;;11.70;7.75;;;;;;;;;;4995259;28;20049;-65
2022/11/27 10:47:17;;;;;;;8.95;7.00;;;;;;;;;;5011065;28;20512;-65
2022/11/27 10:49:45;;;;;;;8.02;6.05;;;;;;;;;;5013973;28;20053;-65
2022/11/27 10:52:15;;;;;;;11.98;5.80;;;;;;;;;;5016055;28;20103;-65
2022/11/27 10:54:41;;;;;;;6.80;5.93;;;;;;;;;;5016232;28;20192;-65
2022/11/27 10:57:28;;;;;;;11.38;6.53;;;;;;;;;;4998926;28;20053;-65
2022/11/27 11:00:08;;;;;;;8.68;6.65;;;;;;;;;;5015603;28;20416;-65
2022/11/27 11:02:37;;;;;;;10.18;6.90;;;;;;;;;;5015842;28;20547;-64
2022/11/27 11:05:22;;;;;;;7.75;6.13;;;;;;;;;;5015984;28;20049;-66
2022/11/27 11:08:17;;;;;;;8.23;6.57;;;;;;;;;;5015566;28;20137;-64
2022/11/27 11:10:49;;;;;;;8.23;6.75;;;;;;;;;;5015933;28;20054;-64
2022/11/27 11:13:26;;;;;;;9.10;6.82;;;;;;;;;;5015647;28;20042;-64
2022/11/27 11:15:57;;;;;;;8.75;6.85;;;;;;;;;;5015850;28;20077;-65
2022/11/27 11:18:45;;;;;;;9.65;6.60;;;;;;;;;;5014999;28;20504;-65
2022/11/27 11:21:14;;;;;;;9.95;7.10;;;;;;;;;;5015631;28;20045;-65
2022/11/27 11:23:41;;;;;;;10.20;7.53;;;;;;;;;;4997891;28;20413;-65
2022/11/27 11:26:20;;;;;;;9.02;6.57;;;;;;;;;;4998423;28;20479;-64
2022/11/27 11:28:52;;;;;;;9.25;6.45;;;;;;;;;;5014859;28;20072;-64
2022/11/27 11:31:26;;;;;;;9.32;7.18;;;;;;;;;;5014328;28;20045;-65
2022/11/27 11:33:58;;;;;;;8.77;6.93;;;;;;;;;;5014157;28;20096;-65
2022/11/27 11:36:25;;;;;;;7.78;6.35;;;;;;;;;;4997886;28;20077;-65
2022/11/27 11:38:51;;;;;;;7.25;6.00;;;;;;;;;;5014629;28;20054;-66
2022/11/27 11:41:19;;;;;;;7.57;6.30;;;;;;;;;;5014090;28;20529;-65
2022/11/27 11:43:58;;;;;;;8.55;5.60;;;;;;;;;;4997750;28;20058;-65
2022/11/27 11:46:28;;;;;;;7.75;5.45;;;;;;;;;;5012933;28;20053;-66
2022/11/27 11:49:00;;;;;;;7.00;5.75;;;;;;;;;;5014757;28;20412;-65
2022/11/27 11:52:08;;;;;;;6.97;5.43;;;;;;;;;;5015126;28;20104;-65
2022/11/27 11:54:40;;;;;;;8.07;4.95;;;;;;;;;;4988278;28;20092;-66
2022/11/27 11:57:30;;;;;;;5.78;4.90;;;;;;;;;;5014952;28;20095;-66
2022/11/27 12:00:10;;;;;;;7.95;5.88;;;;;;;;;;5012811;28;20054;-65
2022/11/27 12:02:43;;;;;;;8.35;5.68;;;;;;;;;;5013622;28;20096;-66
2022/11/27 12:05:20;;;;;;;8.25;5.28;;;;;;;;;;5015174;28;20108;-66
2022/11/27 12:08:20;;;;;;;6.45;5.20;;;;;;;;;;5013427;28;20105;-66
2022/11/27 12:10:55;;;;;;;6.57;5.25;;;;;;;;;;5015095;28;20061;-65
2022/11/27 12:13:56;;;;;;;6.45;4.85;;;;;;;;;;5013917;28;20096;-67
2022/11/27 12:16:34;;;;;;;7.40;5.28;;;;;;;;;;5017065;28;20092;-66
2022/11/27 12:19:22;;;;;;;6.85;4.78;;;;;;;;;;5015366;28;20476;-65
2022/11/27 12:22:00;;;;;;;6.65;4.88;;;;;;;;;;5015677;28;20408;-65
2022/11/27 12:24:39;;;;;;;5.95;5.13;;;;;;;;;;5015155;28;20100;-66
2022/11/27 12:27:41;;;;;;;8.63;6.40;;;;;;;;;;5014477;28;20104;-65
2022/11/27 12:30:20;;;;;;;8.27;6.57;;;;;;;;;;5004667;28;20058;-66
2022/11/27 12:33:05;;;;;;;9.07;6.47;;;;;;;;;;5014267;28;20567;-66
2022/11/27 12:36:00;;;;;;;8.18;6.53;;;;;;;;;;5013764;28;20707;-64
2022/11/27 12:38:46;;;;;;;8.48;6.38;;;;;;;;;;5012701;28;20054;-64
2022/11/27 12:41:25;;;;;;;10.68;7.72;;;;;;;;;;4997171;28;20192;-65
2022/11/27 12:43:55;;;;;;;10.10;7.10;;;;;;;;;;4981014;28;20046;-66
2022/11/27 12:46:36;;;;;;;9.70;7.40;;;;;;;;;;5011776;28;20054;-65
2022/11/27 12:49:26;;;;;;;10.65;7.13;;;;;;;;;;5012339;28;20069;-65
2022/11/27 12:52:18;;;;;;;8.10;6.50;;;;;;;;;;5012711;28;20046;-64
2022/11/27 12:55:03;;;;;;;7.90;5.80;;;;;;;;;;4996678;28;20057;-64
2022/11/27 12:57:38;;;;;;;6.35;5.13;;;;;;;;;;4996688;28;20061;-64
2022/11/27 13:00:12;;;;;;;7.85;5.43;;;;;;;;;;5012129;28;20493;-65
2022/11/27 13:02:58;;;;;;;6.60;5.65;;;;;;;;;;4996412;28;20045;-65
2022/11/27 13:05:27;;;;;;;7.45;5.88;;;;;;;;;;5013825;28;20405;-64
2022/11/27 13:08:20;;;;;;;8.18;5.75;;;;;;;;;;4995684;28;20100;-64
2022/11/27 13:11:07;;;;;;;;;;;;;;;;;;4996312;28;20046;-64
2022/11/27 13:13:58;;;;;;;8.73;5.97;;;;;;;;;;4995890;28;19921;-64
2022/11/27 13:16:36;;;;;;;6.80;5.70;;;;;;;;;;4996287;28;20128;-64
2022/11/27 13:19:30;;;;;;;7.15;6.03;;;;;;;;;;5011730;28;20053;-64
2022/11/27 13:21:58;;;;;;;8.68;6.32;;;;;;;;;;4996167;28;20108;-65
2022/11/27 13:24:25;;;;;;;9.68;6.45;;;;;;;;;;4995507;28;20046;-64
2022/11/27 13:26:59;;;;;;;7.05;6.18;;;;;;;;;;4996187;28;20069;-64
2022/11/27 13:29:43;;;;;;;6.75;4.97;;;;;;;;;;5012784;28;20058;-64
2022/11/27 13:32:18;;;;;;;9.10;5.00;;;;;;;;;;5013122;28;20050;-64
2022/11/27 13:34:45;;;;;;;7.18;5.18;;;;;;;;;;5013083;28;20100;-65
2022/11/27 13:37:28;;;;;;;5.82;4.75;;;;;;;;;;4995569;28;20108;-65
2022/11/27 13:40:03;;;;;;;;;;;;;;;;;;5012880;28;20480;-64
2022/11/27 13:42:29;;;;;;;7.50;5.22;;;;;;;;;;5012891;28;20273;-65
2022/11/27 13:45:01;;;;;;;6.38;4.82;;;;;;;;;;4995523;28;20104;-64
2022/11/27 13:47:29;;;;;;;8.48;6.07;;;;;;;;;;5012742;28;20061;-64
2022/11/27 13:50:07;;;;;;;6.57;5.72;;;;;;;;;;4994922;28;20076;-65
2022/11/27 13:52:33;;;;;;;7.60;6.15;;;;;;;;;;4995232;28;20053;-64
2022/11/27 13:55:02;;;;;;;9.07;6.75;;;;;;;;;;5012722;28;20050;-65
2022/11/27 13:57:29;;;;;;;8.35;7.00;;;;;;;;;;4994980;28;20501;-64
2022/11/27 13:59:59;;;;;;;10.10;7.57;;;;;;;;;;5010744;28;20472;-64
2022/11/27 14:02:43;;;;;;;11.50;7.50;;;;;;;;;;5012868;28;20050;-65
2022/11/27 14:05:12;;;;;;;10.88;8.63;;;;;;;;;;5011309;28;20092;-64
2022/11/27 14:07:44;;;;;;;12.32;8.70;;;;;;;;;;5011016;28;20103;-66
2022/11/27 14:10:23;;;;;;;13.75;8.02;;;;;;;;;;5012429;28;20080;-64
2022/11/27 14:13:06;;;;;;;9.95;8.20;;;;;;;;;;4995155;28;20046;-66
2022/11/27 14:15:35;;;;;;;14.73;9.50;;;;;;;;;;5011342;28;20049;-65
2022/11/27 14:18:20;;;;;;;12.55;8.68;;;;;;;;;;4994428;28;20056;-66
2022/11/27 14:21:01;;;;;;;13.90;9.65;;;;;;;;;;5011808;28;20046;-65
2022/11/27 14:23:30;;;;;;;12.35;8.70;;;;;;;;;;4994763;28;20053;-64
2022/11/27 14:26:13;;;;;;;11.82;8.60;;;;;;;;;;4994815;28;20054;-65
2022/11/27 14:28:42;;;;;;;12.70;8.93;;;;;;;;;;5011506;28;20050;-64
2022/11/27 14:31:29;;;;;;;9.75;7.38;;;;;;;;;;4978614;28;20046;-65
2022/11/27 14:33:56;;;;;;;12.00;7.60;;;;;;;;;;4978587;28;20042;-65
2022/11/27 14:36:43;;;;;;;10.55;7.30;;;;;;;;;;5011899;28;20053;-65
2022/11/27 14:39:20;;;;;;;8.48;6.68;;;;;;;;;;5011493;28;20053;-65
2022/11/27 14:41:58;;;;;;;7.18;5.50;;;;;;;;;;5011160;28;20421;-66
2022/11/27 14:44:25;;;;;;;6.63;4.30;;;;;;;;;;5011999;28;20096;-66
2022/11/27 14:46:51;;;;;;;5.22;3.92;;;;;;;;;;5012154;28;20103;-65
2022/11/27 14:49:19;;;;;;;4.93;3.55;;;;;;;;;;5011469;28;20073;-65
2022/11/27 14:51:46;;;;;;;3.58;3.00;;;;;;;;;;5012130;28;20046;-65
2022/11/27 14:54:18;;;;;;;3.88;2.75;;;;;;;;;;5011032;28;20041;-65
2022/11/27 14:56:44;;;;;;;3.88;2.60;;;;;;;;;;4994618;28;20101;-64